Wetterstation Vordersexau
Wetterdaten: Woche 10.02.14 - 16.02.14 (KW7)
Datum Zeit Temp. A. Feuchte A. Luftdruck Regen Wind Richtung Taupunkt Windchill Windben
10.02.2014 00:00 0,9 C 76 % 971,3 hPa 0,0 l/m 0,0 km/h O -2,8 C 0,9 C 0,0 km/h
10.02.2014 01:00 0,7 C 77 % 970,3 hPa 0,0 l/m 0,0 km/h SO -2,9 C 0,7 C 0,0 km/h
10.02.2014 02:00 1,2 C 76 % 969,8 hPa 0,0 l/m 0,0 km/h O -2,5 C 1,2 C 0,0 km/h
10.02.2014 03:00 1,3 C 77 % 969,0 hPa 0,0 l/m 0,0 km/h O-SO -2,3 C 1,3 C 0,0 km/h
10.02.2014 04:00 2,5 C 74 % 967,5 hPa 0,0 l/m 7,6 km/h N-NW -1,7 C 1,3 C 7,6 km/h
10.02.2014 05:00 2,4 C 72 % 966,6 hPa 0,0 l/m 0,0 km/h SW -2,1 C 2,4 C 0,0 km/h
10.02.2014 06:00 1,3 C 77 % 965,1 hPa 0,0 l/m 0,0 km/h O-NO -2,3 C 1,3 C 0,0 km/h
10.02.2014 07:00 1,3 C 79 % 964,5 hPa 0,0 l/m 0,0 km/h SO -1,9 C 1,3 C 0,0 km/h
10.02.2014 08:00 1,2 C 81 % 964,6 hPa 0,0 l/m 0,0 km/h W -1,7 C 1,2 C 0,0 km/h
10.02.2014 09:00 2,6 C 79 % 963,0 hPa 0,0 l/m 0,0 km/h N -0,7 C 2,6 C 0,0 km/h
10.02.2014 10:00 2,9 C 78 % 989,8 hPa 0,0 l/m 0,0 km/h W -0,5 C 2,9 C 0,0 km/h
10.02.2014 11:00 2,8 C 81 % 989,3 hPa 0,0 l/m 0,0 km/h S-SO -0,1 C 2,8 C 0,0 km/h
10.02.2014 12:00 3,3 C 82 % 962,4 hPa 0,0 l/m 0,0 km/h NW 0,5 C 3,3 C 0,0 km/h
10.02.2014 13:00 5,4 C 77 % 961,4 hPa 0,0 l/m 0,0 km/h S 1,7 C 5,4 C 0,0 km/h
10.02.2014 14:00 4,9 C 79 % 963,4 hPa 0,0 l/m 0,0 km/h W-SW 1,6 C 4,9 C 0,0 km/h
10.02.2014 15:00 6,4 C 76 % 963,4 hPa 0,0 l/m 0,0 km/h O-SO 2,5 C 6,4 C 0,0 km/h
10.02.2014 16:00 6,3 C 73 % 964,0 hPa 0,0 l/m 0,0 km/h N-NO 1,8 C 6,3 C 0,0 km/h
10.02.2014 17:00 5,5 C 74 % 964,8 hPa 0,0 l/m 0,0 km/h O-SO 1,2 C 5,5 C 0,0 km/h
10.02.2014 18:00 4,4 C 79 % 966,0 hPa 0,0 l/m 0,0 km/h O-SO 1,1 C 4,4 C 0,0 km/h
10.02.2014 19:00 4,2 C 82 % 967,2 hPa 0,0 l/m 0,0 km/h S-SO 1,4 C 4,2 C 0,0 km/h
10.02.2014 20:00 5,4 C 86 % 968,2 hPa 0,3 l/m 9,7 km/h SW 3,3 C 2,7 C 5,4 km/h
10.02.2014 21:00 5,5 C 87 % 969,3 hPa 0,2 l/m 5,4 km/h SW 3,5 C 5,5 C 5,4 km/h
10.02.2014 22:00 5,4 C 86 % 971,2 hPa 0,0 l/m 17,6 km/h W 3,3 C -1,7 C 17,6 km/h
10.02.2014 23:00 4,5 C 87 % 972,3 hPa 0,2 l/m 0,7 km/h W 2,5 C 4,5 C 0,7 km/h
11.02.2014 00:00 4,5 C 87 % 973,8 hPa 0,0 l/m 1,1 km/h W 2,5 C 4,5 C 1,1 km/h
11.02.2014 01:00 4,5 C 87 % 975,3 hPa 0,0 l/m 0,0 km/h SW 2,5 C 4,5 C 0,0 km/h
11.02.2014 02:00 4,2 C 87 % 975,8 hPa 0,0 l/m 0,0 km/h W-SW 2,2 C 4,2 C 0,0 km/h
11.02.2014 03:00 4,4 C 87 % 977,1 hPa 0,0 l/m 5,4 km/h W-SW 2,4 C 4,4 C 5,4 km/h
11.02.2014 04:00 5,0 C 87 % 977,4 hPa 0,0 l/m 10,1 km/h W 3,0 C 2,0 C 10,1 km/h
11.02.2014 05:00 4,3 C 87 % 978,9 hPa 0,2 l/m 0,0 km/h W-SW 2,3 C 4,3 C 0,0 km/h
11.02.2014 06:00 3,8 C 87 % 979,0 hPa 0,0 l/m 0,6 km/h SW 1,8 C 3,8 C 0,4 km/h
11.02.2014 07:00 3,9 C 87 % 979,6 hPa 0,0 l/m 20,7 km/h S 1,9 C -4,9 C 11,5 km/h
11.02.2014 08:00 3,9 C 86 % 980,2 hPa 0,0 l/m 22,0 km/h S-SW 1,8 C -5,4 C 12,2 km/h
11.02.2014 09:00 7,9 C 78 % 980,2 hPa 0,0 l/m 22,0 km/h W-SW 4,3 C -0,1 C 12,2 km/h
11.02.2014 10:00 6,4 C 79 % 980,0 hPa 0,0 l/m 14,9 km/h SW 3,0 C 0,8 C 8,3 km/h
11.02.2014 11:00 8,5 C 73 % 979,5 hPa 0,0 l/m 20,1 km/h SW 3,9 C 1,3 C 11,2 km/h
11.02.2014 12:00 8,1 C 68 % 978,8 hPa 0,0 l/m 22,0 km/h SW 2,6 C 0,2 C 12,2 km/h
11.02.2014 13:00 7,9 C 67 % 978,3 hPa 0,0 l/m 22,7 km/h SW 2,2 C -0,3 C 12,6 km/h
11.02.2014 14:00 11,5 C 57 % 976,7 hPa 0,0 l/m 0,0 km/h W 3,3 C 11,5 C 0,0 km/h
11.02.2014 15:00 11,3 C 55 % 976,3 hPa 0,0 l/m 23,3 km/h W-SW 2,6 C 4,0 C 13,0 km/h
11.02.2014 16:00 12,2 C 53 % 976,5 hPa 0,0 l/m 7,1 km/h W 2,9 C 11,7 C 4,0 km/h
11.02.2014 17:00 10,4 C 55 % 975,8 hPa 0,0 l/m 0,0 km/h SO 1,8 C 10,4 C 0,0 km/h
11.02.2014 18:00 2,9 C 75 % 976,5 hPa 0,0 l/m 0,0 km/h O-SO -1,1 C 2,9 C 0,0 km/h
11.02.2014 19:00 1,8 C 82 % 976,6 hPa 0,0 l/m 0,0 km/h SO -0,9 C 1,8 C 0,0 km/h
11.02.2014 20:00 0,9 C 84 % 976,6 hPa 0,0 l/m 0,0 km/h O-NO -1,5 C 0,9 C 0,0 km/h
11.02.2014 21:00 0,8 C 86 % 977,2 hPa 0,0 l/m 0,0 km/h O -1,3 C 0,8 C 0,0 km/h
11.02.2014 22:00 0,6 C 86 % 977,4 hPa 0,0 l/m 0,0 km/h O-SO -1,5 C 0,6 C 0,0 km/h
11.02.2014 23:00 0,1 C 87 % 977,9 hPa 0,0 l/m 1,1 km/h O-NO -1,8 C 0,1 C 1,1 km/h
12.02.2014 00:00 0,1 C 87 % 978,3 hPa 0,0 l/m 0,0 km/h O-NO -1,8 C 0,1 C 0,0 km/h
12.02.2014 01:00 0,2 C 87 % 978,7 hPa 0,0 l/m 0,0 km/h SO -1,7 C 0,2 C 0,0 km/h
12.02.2014 02:00 -0,1 C 87 % 979,6 hPa 0,0 l/m 0,4 km/h O-SO -2,0 C -0,1 C 0,4 km/h
12.02.2014 03:00 0,6 C 87 % 980,1 hPa 0,0 l/m 0,0 km/h N-NO -1,3 C 0,6 C 0,0 km/h
12.02.2014 04:00 1,3 C 87 % 980,4 hPa 0,0 l/m 0,0 km/h W -0,6 C 1,3 C 0,0 km/h
12.02.2014 05:00 3,1 C 87 % 981,5 hPa 0,0 l/m 0,0 km/h W-SW 1,2 C 3,1 C 0,0 km/h
12.02.2014 06:00 4,2 C 86 % 982,3 hPa 0,0 l/m 11,0 km/h W 2,1 C 0,5 C 6,1 km/h
12.02.2014 07:00 3,9 C 86 % 983,3 hPa 0,0 l/m 0,0 km/h W 1,8 C 3,9 C 0,0 km/h
12.02.2014 08:00 3,6 C 86 % 983,7 hPa 0,0 l/m 0,0 km/h SW 1,5 C 3,6 C 0,0 km/h
12.02.2014 09:00 4,8 C 86 % 984,3 hPa 0,0 l/m 8,4 km/h S-SW 2,7 C 3,1 C 4,7 km/h
12.02.2014 10:00 5,6 C 80 % 984,6 hPa 0,0 l/m 11,0 km/h W-SW 2,4 C 2,1 C 6,1 km/h
12.02.2014 11:00 7,9 C 70 % 984,6 hPa 0,0 l/m 22,0 km/h SW 2,8 C -0,1 C 12,2 km/h
12.02.2014 12:00 10,9 C 62 % 984,3 hPa 0,0 l/m 14,9 km/h W-SW 3,9 C 6,3 C 8,3 km/h
12.02.2014 13:00 10,6 C 60 % 983,3 hPa 0,0 l/m 24,0 km/h W-NW 3,2 C 2,9 C 13,3 km/h
12.02.2014 14:00 10,9 C 58 % 982,4 hPa 0,0 l/m 20,1 km/h SW 3,0 C 4,4 C 11,2 km/h
12.02.2014 15:00 12,8 C 53 % 981,1 hPa 0,0 l/m 10,4 km/h W-SW 3,5 C 10,5 C 5,8 km/h
12.02.2014 16:00 14,1 C 50 % 979,9 hPa 0,0 l/m 1,9 km/h W 3,8 C 14,1 C 1,1 km/h
12.02.2014 17:00 10,6 C 55 % 978,8 hPa 0,0 l/m 0,0 km/h S-SW 1,9 C 10,6 C 0,0 km/h
12.02.2014 18:00 3,6 C 74 % 977,9 hPa 0,0 l/m 0,0 km/h N-NO -0,6 C 3,6 C 0,0 km/h
12.02.2014 19:00 2,1 C 80 % 977,3 hPa 0,0 l/m 0,0 km/h N -1,0 C 2,1 C 0,0 km/h
12.02.2014 20:00 1,3 C 82 % 976,5 hPa 0,0 l/m 1,9 km/h O-NO -1,4 C 1,3 C 1,1 km/h
12.02.2014 21:00 1,9 C 83 % 976,0 hPa 0,0 l/m 0,0 km/h N-NO -0,7 C 1,9 C 0,0 km/h
12.02.2014 22:00 2,6 C 82 % 975,7 hPa 0,0 l/m 0,0 km/h SO -0,2 C 2,6 C 0,0 km/h
12.02.2014 23:00 3,3 C 81 % 976,1 hPa 0,0 l/m 0,0 km/h W-SW 0,4 C 3,3 C 0,0 km/h
13.02.2014 00:00 7,6 C 65 % 977,3 hPa 0,0 l/m 11,2 km/h S-SW 1,5 C 4,2 C 11,2 km/h
13.02.2014 01:00 5,9 C 77 % 977,8 hPa 0,2 l/m 22,3 km/h SW 2,2 C -2,8 C 22,3 km/h
13.02.2014 02:00 5,8 C 81 % 977,8 hPa 0,0 l/m 8,6 km/h W-SW 2,8 C 4,0 C 8,6 km/h
13.02.2014 03:00 6,7 C 82 % 978,1 hPa 0,0 l/m 16,9 km/h W-SW 3,8 C 0,3 C 16,9 km/h
13.02.2014 04:00 7,5 C 78 % 977,7 hPa 0,0 l/m 14,0 km/h S-SW 3,9 C 2,6 C 14,0 km/h
13.02.2014 05:00 7,6 C 76 % 976,5 hPa 0,0 l/m 25,9 km/h SW 3,6 C -1,7 C 14,4 km/h
13.02.2014 06:00 7,4 C 74 % 975,1 hPa 0,0 l/m 11,7 km/h S 3,1 C 3,7 C 6,5 km/h
13.02.2014 07:00 7,6 C 72 % 974,3 hPa 0,0 l/m 14,3 km/h SO 2,9 C 2,6 C 7,9 km/h
13.02.2014 08:00 6,8 C 75 % 973,0 hPa 0,0 l/m 10,4 km/h S-SO 2,7 C 3,8 C 5,8 km/h
13.02.2014 09:00 7,9 C 71 % 971,1 hPa 0,0 l/m 7,1 km/h N-NO 3,0 C 7,3 C 4,0 km/h
13.02.2014 10:00 7,3 C 75 % 969,4 hPa 0,0 l/m 0,0 km/h S-SO 3,2 C 7,3 C 0,0 km/h
13.02.2014 11:00 6,1 C 83 % 968,8 hPa 0,3 l/m 0,0 km/h S 3,4 C 6,1 C 0,0 km/h
13.02.2014 12:00 7,3 C 85 % 966,7 hPa 0,8 l/m 25,9 km/h S 4,9 C -2,1 C 14,4 km/h
13.02.2014 13:00 10,6 C 72 % 965,6 hPa 0,0 l/m 35,0 km/h W 5,8 C 0,6 C 19,4 km/h
13.02.2014 14:00 8,6 C 83 % 967,3 hPa 0,3 l/m 45,4 km/h S 5,9 C -3,9 C 25,2 km/h
13.02.2014 15:00 8,1 C 82 % 967,4 hPa 0,0 l/m 36,9 km/h S-SW 5,2 C -3,4 C 20,5 km/h
13.02.2014 16:00 7,6 C 80 % 968,6 hPa 0,0 l/m 17,5 km/h S-SO 4,4 C 1,1 C 9,7 km/h
13.02.2014 17:00 7,2 C 82 % 969,1 hPa 0,0 l/m 17,5 km/h SW 4,3 C 0,6 C 9,7 km/h
13.02.2014 18:00 4,9 C 87 % 971,8 hPa 1,1 l/m 29,2 km/h SW 2,9 C -6,3 C 16,2 km/h
13.02.2014 19:00 5,5 C 86 % 973,6 hPa 0,0 l/m 13,0 km/h W-SW 3,3 C 0,7 C 7,2 km/h
13.02.2014 20:00 5,4 C 86 % 974,8 hPa 0,0 l/m 24,6 km/h SW 3,3 C -4,3 C 13,7 km/h
13.02.2014 21:00 5,3 C 85 % 976,4 hPa 0,0 l/m 15,5 km/h SW 3,0 C -0,8 C 15,5 km/h
13.02.2014 22:00 5,3 C 84 % 977,4 hPa 0,0 l/m 12,6 km/h W-NW 2,8 C 0,7 C 12,6 km/h
13.02.2014 23:00 3,0 C 87 % 979,1 hPa 0,3 l/m 0,0 km/h SO 1,1 C 3,0 C 0,0 km/h
14.02.2014 00:00 2,1 C 87 % 980,7 hPa 0,0 l/m 0,0 km/h SO 0,2 C 2,1 C 0,0 km/h
14.02.2014 01:00 3,8 C 87 % 980,8 hPa 0,0 l/m 12,6 km/h SW 1,8 C -1,0 C 12,6 km/h
14.02.2014 02:00 4,7 C 83 % 981,4 hPa 0,0 l/m 11,2 km/h SW 2,1 C 0,9 C 11,2 km/h
14.02.2014 03:00 4,8 C 82 % 982,0 hPa 0,0 l/m 8,3 km/h S-SW 2,0 C 3,1 C 8,3 km/h
14.02.2014 04:00 4,3 C 82 % 981,8 hPa 0,0 l/m 4,3 km/h S-SO 1,5 C 4,3 C 4,3 km/h
14.02.2014 05:00 4,1 C 81 % 981,6 hPa 0,0 l/m 15,6 km/h S-SW 1,1 C -2,3 C 8,6 km/h
14.02.2014 06:00 4,8 C 80 % 981,4 hPa 0,0 l/m 33,0 km/h W-SW 1,6 C -7,4 C 18,4 km/h
14.02.2014 07:00 4,2 C 80 % 981,8 hPa 0,0 l/m 3,2 km/h O 1,1 C 4,2 C 1,8 km/h
14.02.2014 08:00 4,9 C 79 % 982,3 hPa 0,0 l/m 0,0 km/h NO 1,6 C 4,9 C 0,0 km/h
14.02.2014 09:00 4,8 C 84 % 982,9 hPa 0,0 l/m 0,0 km/h S-SO 2,3 C 4,8 C 0,0 km/h
14.02.2014 10:00 7,6 C 78 % 981,9 hPa 0,0 l/m 2,6 km/h S-SW 4,0 C 7,6 C 1,4 km/h
14.02.2014 11:00 10,6 C 59 % 981,6 hPa 0,0 l/m 11,0 km/h SO 2,9 C 7,7 C 6,1 km/h
14.02.2014 12:00 11,3 C 57 % 980,7 hPa 0,0 l/m 0,0 km/h SO 3,1 C 11,3 C 0,0 km/h
14.02.2014 13:00 11,2 C 55 % 979,6 hPa 0,0 l/m 10,4 km/h S 2,5 C 8,7 C 5,8 km/h
14.02.2014 14:00 10,3 C 56 % 978,5 hPa 0,0 l/m 13,6 km/h SO 1,9 C 6,1 C 7,6 km/h
14.02.2014 15:00 9,3 C 62 % 978,0 hPa 0,0 l/m 2,6 km/h S-SO 2,4 C 9,3 C 1,4 km/h
14.02.2014 16:00 9,3 C 67 % 977,0 hPa 0,0 l/m 23,3 km/h SO 3,5 C 1,4 C 13,0 km/h
14.02.2014 17:00 9,4 C 69 % 976,1 hPa 0,0 l/m 5,2 km/h O 4,0 C 9,4 C 2,9 km/h
14.02.2014 18:00 6,9 C 75 % 976,2 hPa 0,0 l/m 0,0 km/h O 2,8 C 6,9 C 0,0 km/h
14.02.2014 19:00 6,3 C 81 % 976,0 hPa 0,0 l/m 0,0 km/h O 3,3 C 6,3 C 0,0 km/h
14.02.2014 20:00 6,4 C 83 % 975,0 hPa 0,0 l/m 0,0 km/h O-SO 3,7 C 6,4 C 0,0 km/h
14.02.2014 21:00 5,9 C 83 % 973,9 hPa 0,0 l/m 0,0 km/h SO 3,2 C 5,9 C 0,0 km/h
14.02.2014 22:00 6,6 C 85 % 974,0 hPa 0,0 l/m 6,8 km/h O-SO 4,3 C 6,3 C 6,8 km/h
14.02.2014 23:00 5,1 C 85 % 972,7 hPa 0,0 l/m 0,0 km/h N-NW 2,8 C 5,1 C 0,0 km/h
15.02.2014 00:00 5,2 C 86 % 972,4 hPa 0,0 l/m 0,0 km/h S 3,1 C 5,2 C 0,0 km/h
15.02.2014 01:00 4,3 C 87 % 973,0 hPa 0,0 l/m 0,7 km/h O-SO 2,3 C 4,3 C 0,7 km/h
15.02.2014 02:00 4,8 C 87 % 972,7 hPa 0,0 l/m 1,1 km/h S-SO 2,8 C 4,8 C 1,1 km/h
15.02.2014 03:00 4,6 C 87 % 973,2 hPa 0,0 l/m 0,0 km/h NO 2,6 C 4,6 C 0,0 km/h
15.02.2014 04:00 6,8 C 87 % 973,2 hPa 0,0 l/m 0,0 km/h S-SW 4,8 C 6,8 C 0,0 km/h
15.02.2014 05:00 12,3 C 73 % 973,3 hPa 0,0 l/m 21,4 km/h SW 7,6 C 5,9 C 11,9 km/h
15.02.2014 06:00 12,8 C 70 % 973,3 hPa 0,0 l/m 33,7 km/h S-SW 7,5 C 4,0 C 18,7 km/h
15.02.2014 07:00 12,8 C 71 % 973,1 hPa 0,0 l/m 6,5 km/h S-SW 7,7 C 12,8 C 3,6 km/h
15.02.2014 08:00 12,4 C 73 % 973,7 hPa 0,0 l/m 22,7 km/h S 7,7 C 5,6 C 12,6 km/h
15.02.2014 09:00 11,2 C 81 % 974,0 hPa 0,0 l/m 22,7 km/h W 8,1 C 4,1 C 12,6 km/h
15.02.2014 10:00 10,2 C 85 % 975,3 hPa 0,2 l/m 3,2 km/h S-SW 7,8 C 10,2 C 1,8 km/h
15.02.2014 11:00 9,6 C 86 % 975,4 hPa 0,5 l/m 5,2 km/h W 7,4 C 9,6 C 2,9 km/h
15.02.2014 12:00 9,3 C 87 % 975,6 hPa 0,0 l/m 0,0 km/h W 7,2 C 9,3 C 0,0 km/h
15.02.2014 13:00 9,1 C 87 % 975,9 hPa 0,0 l/m 0,0 km/h W-NW 7,1 C 9,1 C 0,0 km/h
15.02.2014 14:00 9,0 C 87 % 976,1 hPa 0,0 l/m 1,9 km/h W 7,0 C 9,0 C 1,1 km/h
15.02.2014 15:00 8,5 C 86 % 976,9 hPa 0,0 l/m 15,6 km/h W 6,3 C 3,1 C 8,6 km/h
15.02.2014 16:00 7,6 C 86 % 977,9 hPa 0,9 l/m 1,9 km/h W-SW 5,4 C 7,6 C 1,1 km/h
15.02.2014 17:00 6,9 C 85 % 978,3 hPa 0,6 l/m 22,7 km/h W-SW 4,6 C -1,7 C 12,6 km/h
15.02.2014 18:00 5,9 C 85 % 980,2 hPa 0,6 l/m 19,4 km/h S-SO 3,6 C -1,8 C 10,8 km/h
15.02.2014 19:00 5,4 C 86 % 980,7 hPa 0,3 l/m 0,0 km/h S 3,3 C 5,4 C 0,0 km/h
15.02.2014 20:00 5,1 C 86 % 981,4 hPa 0,9 l/m 1,9 km/h S 3,0 C 5,1 C 1,1 km/h
15.02.2014 21:00 4,5 C 86 % 982,3 hPa 0,6 l/m 11,2 km/h SO 2,4 C 0,7 C 11,2 km/h
15.02.2014 22:00 4,5 C 87 % 982,2 hPa 0,0 l/m 6,1 km/h NO 2,5 C 4,5 C 6,1 km/h
15.02.2014 23:00 4,6 C 87 % 982,5 hPa 0,0 l/m 0,0 km/h O 2,6 C 4,6 C 0,0 km/h
16.02.2014 00:00 4,6 C 87 % 983,0 hPa 0,2 l/m 0,0 km/h O 2,6 C 4,6 C 0,0 km/h
16.02.2014 01:00 5,8 C 87 % 983,4 hPa 0,0 l/m 0,0 km/h SW 3,8 C 5,8 C 0,0 km/h
16.02.2014 02:00 6,1 C 87 % 983,8 hPa 0,0 l/m 11,9 km/h W 4,1 C 2,1 C 11,9 km/h
16.02.2014 03:00 6,5 C 84 % 983,8 hPa 0,0 l/m 8,6 km/h S 4,0 C 4,7 C 8,6 km/h
16.02.2014 04:00 6,8 C 81 % 983,9 hPa 0,0 l/m 7,2 km/h S 3,8 C 6,1 C 7,2 km/h
16.02.2014 05:00 6,7 C 80 % 984,3 hPa 0,0 l/m 24,0 km/h SW 3,5 C -2,3 C 13,3 km/h
16.02.2014 06:00 6,5 C 80 % 984,2 hPa 0,0 l/m 27,2 km/h S-SW 3,3 C -3,5 C 15,1 km/h
16.02.2014 07:00 6,6 C 80 % 984,8 hPa 0,0 l/m 16,8 km/h S-SW 3,4 C 0,2 C 9,4 km/h
16.02.2014 08:00 6,7 C 80 % 985,3 hPa 0,0 l/m 9,7 km/h SW 3,5 C 4,2 C 5,4 km/h
16.02.2014 09:00 7,5 C 77 % 985,7 hPa 0,0 l/m 17,5 km/h SW 3,7 C 1,0 C 9,7 km/h
16.02.2014 10:00 8,4 C 74 % 985,7 hPa 0,0 l/m 20,7 km/h W-SW 4,0 C 1,0 C 11,5 km/h
16.02.2014 11:00 8,3 C 73 % 986,3 hPa 0,0 l/m 22,7 km/h W 3,8 C 0,2 C 12,6 km/h
16.02.2014 12:00 9,4 C 72 % 986,1 hPa 0,0 l/m 25,3 km/h SW 4,6 C 0,9 C 14,0 km/h
16.02.2014 13:00 9,3 C 71 % 986,0 hPa 0,0 l/m 25,3 km/h S-SW 4,3 C 0,8 C 14,0 km/h
16.02.2014 14:00 9,4 C 71 % 985,8 hPa 0,0 l/m 20,7 km/h S-SW 4,4 C 2,3 C 11,5 km/h
16.02.2014 15:00 9,8 C 69 % 985,5 hPa 0,0 l/m 42,1 km/h W-SW 4,4 C -1,7 C 23,4 km/h
16.02.2014 16:00 9,8 C 68 % 985,4 hPa 0,0 l/m 22,0 km/h S-SW 4,2 C 2,4 C 12,2 km/h
16.02.2014 17:00 9,1 C 71 % 985,3 hPa 0,0 l/m 4,5 km/h S-SO 4,1 C 9,1 C 2,5 km/h
16.02.2014 18:00 5,6 C 78 % 1012,1 hPa 0,0 l/m 0,0 km/h O-SO 2,1 C 5,6 C 0,0 km/h
16.02.2014 19:00 3,6 C 84 % 1012,2 hPa 0,0 l/m 0,0 km/h O-SO 1,2 C 3,6 C 0,0 km/h
16.02.2014 20:00 2,9 C 86 % 1011,7 hPa 0,0 l/m 0,0 km/h O-SO 0,8 C 2,9 C 0,0 km/h
16.02.2014 21:00 2,0 C 87 % 985,0 hPa 0,0 l/m 0,0 km/h O-NO 0,1 C 2,0 C 0,0 km/h
16.02.2014 22:00 1,4 C 87 % 985,1 hPa 0,0 l/m 0,0 km/h O-NO -0,5 C 1,4 C 0,0 km/h
16.02.2014 23:00 1,2 C 87 % 985,1 hPa 0,0 l/m 0,0 km/h O-SO -0,7 C 1,2 C 0,0 km/h
Min-Datum _ 12.02.14 12.02.14 10.02.14 - 10.02.14 - 10.02.14 14.02.14 10.02.14
_ Min-Zeit 02:19 16:19 13:19 - 00:19 - 01:19 06:19 00:19
Minimum _ -0,1 C 50 % 961,4 hPa - 0,0 km/h - -2,9 C -7,4 C 0,0 km/h
Max-Datum _ 12.02.14 10.02.14 16.02.14 13.02.14 13.02.14 - 15.02.14 12.02.14 13.02.14
_ Max-Zeit 16:19 21:19 19:19 18:19 14:19 - 09:19 16:19 14:19
Maximum _ 14,1 C 87 % 1012,2 hPa 1,1 l/m 45,4 km/h
S
- 8,1 C 14,1 C 25,2 km/h
S
Durchschnitt _ 5,9 C 79 % 977,6 hPa #8,5 l/m 8,6 km/h SW 2,4 C 3,2 C 5,4 km/h
www.sexauwetter.de